Time;durP1;ratioP1;P1;durP2;ratioP2;P2;SDS_P1;SDS_P2;PMS_P1;PMS_P2;Temp;Humidity;BMP_temperature;BMP_pressure;BME280_temperature;BME280_humidity;BME280_pressure;Samples;Min_cycle;Max_cycle;Signal;HPM_P1;HPM_P2
2023/01/04 00:00:14;;;;;;;33.25;23.92;;;;;;;9.88;100.00;102267.25;2092400;28;20681;-75
2023/01/04 00:01:35;;;;;;;33.70;29.15;;;;;;;9.84;100.00;102264.44;2103029;28;20044;-75
2023/01/04 00:02:58;;;;;;;33.15;26.27;;;;;;;9.78;100.00;102264.19;2105996;28;20422;-75
2023/01/04 00:04:19;;;;;;;32.78;25.02;;;;;;;9.76;100.00;102268.47;2096204;28;20545;-75
2023/01/04 00:05:41;;;;;;;28.05;22.05;;;;;;;9.76;100.00;102271.13;2094361;28;20055;-75
2023/01/04 00:07:04;;;;;;;32.10;23.95;;;;;;;9.78;100.00;102270.34;2089517;28;20048;-75
2023/01/04 00:08:26;;;;;;;30.75;24.05;;;;;;;9.79;100.00;102266.88;2092487;28;20488;-75
2023/01/04 00:09:49;;;;;;;31.33;24.48;;;;;;;9.80;100.00;102267.75;2097160;28;20048;-75
2023/01/04 00:11:12;;;;;;;28.42;21.40;;;;;;;9.81;100.00;102272.22;2090305;28;20075;-75
2023/01/04 00:12:36;;;;;;;25.60;19.83;;;;;;;9.81;100.00;102264.31;2094641;28;20110;-75
2023/01/04 00:13:58;;;;;;;27.05;20.23;;;;;;;9.84;100.00;102261.81;2078280;28;20131;-75
2023/01/04 00:15:22;;;;;;;27.35;20.40;;;;;;;9.88;100.00;102269.91;2095997;28;20086;-75
2023/01/04 00:16:44;;;;;;;24.40;18.00;;;;;;;9.93;100.00;102271.00;2089194;28;20587;-75
2023/01/04 00:18:07;;;;;;;25.95;18.55;;;;;;;9.99;100.00;102265.06;2089264;28;20440;-75
2023/01/04 00:19:29;;;;;;;25.77;18.80;;;;;;;10.05;100.00;102264.41;2100573;28;20044;-75
2023/01/04 00:20:50;;;;;;;26.77;19.27;;;;;;;10.12;100.00;102269.13;2095430;28;20089;-75
2023/01/04 00:22:13;;;;;;;25.00;18.25;;;;;;;10.15;100.00;102269.25;2083985;28;20052;-76
2023/01/04 00:23:34;;;;;;;24.58;18.02;;;;;;;10.17;100.00;102265.91;2083546;28;20567;-75
2023/01/04 00:24:57;;;;;;;21.50;17.17;;;;;;;10.18;100.00;102262.41;2091200;28;20048;-75
2023/01/04 00:26:22;;;;;;;23.60;15.38;;;;;;;10.19;100.00;102265.94;2086869;28;20140;-75
2023/01/04 00:27:44;;;;;;;21.90;15.45;;;;;;;10.15;100.00;102253.44;2093083;28;20428;-75
2023/01/04 00:29:08;;;;;;;21.67;14.98;;;;;;;10.11;100.00;102259.44;2094160;28;20153;-75
2023/01/04 00:30:31;;;;;;;20.58;15.43;;;;;;;10.10;100.00;102257.63;2098739;28;20048;-74
2023/01/04 00:31:53;;;;;;;20.75;14.38;;;;;;;10.06;100.00;102253.94;2086866;28;20052;-75
2023/01/04 00:33:15;;;;;;;20.58;15.07;;;;;;;10.03;100.00;102258.19;2091565;28;20049;-75
2023/01/04 00:34:37;;;;;;;21.20;15.23;;;;;;;9.99;100.00;102259.78;2094402;28;20117;-75
2023/01/04 00:36:03;;;;;;;24.88;17.92;;;;;;;9.94;100.00;102249.06;2086335;28;20111;-75
2023/01/04 00:37:25;;;;;;;30.58;21.85;;;;;;;9.89;100.00;102252.34;2091831;28;20063;-75
2023/01/04 00:38:47;;;;;;;36.78;28.48;;;;;;;9.83;100.00;102245.06;2093676;28;20167;-75
2023/01/04 00:40:11;;;;;;;32.88;28.42;;;;;;;9.80;100.00;102250.22;2094194;28;20499;-76
2023/01/04 00:41:34;;;;;;;30.98;25.40;;;;;;;9.76;100.00;102248.28;2081819;28;20872;-75
2023/01/04 00:42:57;;;;;;;25.80;18.67;;;;;;;9.74;100.00;102252.59;2094154;28;20056;-75
2023/01/04 00:44:21;;;;;;;23.35;18.35;;;;;;;9.68;100.00;102240.88;2093226;28;20388;-74
2023/01/04 00:45:44;;;;;;;23.55;17.05;;;;;;;9.64;100.00;102252.13;2094734;28;20084;-75
2023/01/04 00:47:06;;;;;;;25.08;19.10;;;;;;;9.58;100.00;102248.38;2094211;28;20052;-75
2023/01/04 00:48:29;;;;;;;28.33;21.20;;;;;;;9.54;100.00;102243.81;2093270;28;20109;-75
2023/01/04 00:49:51;;;;;;;32.28;24.90;;;;;;;9.49;100.00;102245.34;2085262;28;20400;-75
2023/01/04 00:51:13;;;;;;;32.33;24.63;;;;;;;9.46;100.00;102241.66;2086738;28;20502;-75
2023/01/04 00:52:35;;;;;;;29.42;23.25;;;;;;;9.41;100.00;102241.47;2092459;28;20127;-75
2023/01/04 00:53:58;;;;;;;26.25;20.55;;;;;;;9.37;100.00;102239.56;2082482;28;20056;-75
2023/01/04 00:55:19;;;;;;;31.67;22.25;;;;;;;9.33;100.00;102240.22;2091480;28;20040;-75
2023/01/04 00:56:42;;;;;;;36.85;27.08;;;;;;;9.29;100.00;102238.31;2109459;28;20043;-75
2023/01/04 00:58:05;;;;;;;31.80;22.90;;;;;;;9.26;100.00;102238.16;2096457;28;20053;-76
2023/01/04 00:59:28;;;;;;;28.48;20.75;;;;;;;9.25;100.00;102235.47;2086124;28;20068;-75
2023/01/04 01:00:50;;;;;;;30.73;20.13;;;;;;;9.23;100.00;102234.50;2092495;28;20047;-75
2023/01/04 01:02:13;;;;;;;30.02;21.98;;;;;;;9.19;100.00;102241.34;2084625;28;20057;-75
2023/01/04 01:03:36;;;;;;;29.75;22.63;;;;;;;9.17;100.00;102236.03;2090983;28;20041;-75
2023/01/04 01:04:58;;;;;;;27.98;20.35;;;;;;;9.14;100.00;102237.63;2094783;28;20040;-76
2023/01/04 01:06:22;;;;;;;28.20;19.55;;;;;;;9.13;100.00;102238.44;2087997;28;20049;-75
2023/01/04 01:07:43;;;;;;;27.95;19.70;;;;;;;9.10;100.00;102244.50;2092334;28;20051;-75
2023/01/04 01:09:06;;;;;;;28.90;20.00;;;;;;;9.07;100.00;102241.69;2086299;28;20065;-75
2023/01/04 01:10:28;;;;;;;28.42;18.98;;;;;;;9.05;100.00;102238.13;2083102;28;20500;-75
2023/01/04 01:11:51;;;;;;;29.77;19.23;;;;;;;9.05;100.00;102237.22;2092190;28;20062;-75
2023/01/04 01:13:13;;;;;;;31.02;21.25;;;;;;;9.04;100.00;102243.31;2086324;28;20045;-76
2023/01/04 01:14:36;;;;;;;30.15;22.23;;;;;;;9.02;100.00;102244.97;2092310;28;20056;-75
2023/01/04 01:16:04;;;;;;;26.55;18.70;;;;;;;9.02;100.00;102244.97;2093946;28;20040;-75
2023/01/04 01:17:26;;;;;;;25.90;17.45;;;;;;;9.00;100.00;102239.63;2103656;28;20134;-75
2023/01/04 01:18:49;;;;;;;27.55;17.77;;;;;;;8.96;100.00;102237.69;2088947;28;20056;-75
2023/01/04 01:20:11;;;;;;;27.52;17.95;;;;;;;8.97;100.00;102235.97;2091247;28;20045;-76
2023/01/04 01:21:33;;;;;;;25.55;17.67;;;;;;;8.95;100.00;102241.16;2085593;28;20048;-75
2023/01/04 01:22:55;;;;;;;28.17;18.75;;;;;;;8.96;100.00;102242.06;2100253;28;20085;-75
2023/01/04 01:24:19;;;;;;;27.48;17.63;;;;;;;8.97;100.00;102233.31;2080015;28;20075;-75
2023/01/04 01:25:41;;;;;;;28.98;19.08;;;;;;;8.97;100.00;102233.31;2091936;28;20712;-75
2023/01/04 01:27:03;;;;;;;29.88;18.67;;;;;;;8.97;100.00;102226.31;2097398;28;20046;-75
2023/01/04 01:28:25;;;;;;;31.52;20.55;;;;;;;8.98;100.00;102232.50;2086177;28;20045;-74
2023/01/04 01:29:47;;;;;;;30.48;20.17;;;;;;;8.98;100.00;102238.66;2082603;28;20060;-75
2023/01/04 01:31:12;;;;;;;33.47;20.92;;;;;;;8.99;100.00;102229.91;2092033;28;20531;-75
2023/01/04 01:32:35;;;;;;;39.15;25.90;;;;;;;8.98;100.00;102227.22;2086780;28;20080;-75
2023/01/04 01:33:58;;;;;;;59.15;42.08;;;;;;;8.96;100.00;102232.41;2094002;28;20059;-75
2023/01/04 01:35:20;;;;;;;52.13;37.28;;;;;;;8.94;100.00;102233.16;2086271;28;20053;-75
2023/01/04 01:36:43;;;;;;;110.63;98.32;;;;;;;8.91;100.00;102231.31;2099368;28;20036;-75
2023/01/04 01:38:06;;;;;;;103.95;90.53;;;;;;;8.88;100.00;102235.53;2087512;28;20052;-75
2023/01/04 01:39:27;;;;;;;108.68;96.32;;;;;;;8.84;100.00;102233.59;2091149;28;20374;-75
2023/01/04 01:40:50;;;;;;;101.68;87.97;;;;;;;8.83;100.00;102231.78;2100766;28;20078;-75
2023/01/04 01:42:19;;;;;;;54.78;41.33;;;;;;;8.83;100.00;102230.06;2080313;28;20453;-75
2023/01/04 01:43:47;;;;;;;49.53;37.60;;;;;;;8.88;100.00;102232.88;2100679;28;20055;-75
2023/01/04 01:45:25;;;;;;;42.92;30.25;;;;;;;8.92;100.00;102234.84;2087660;28;20060;-75
2023/01/04 01:46:52;;;;;;;30.75;22.42;;;;;;;8.96;100.00;102229.78;2103102;28;20099;-75
2023/01/04 01:48:19;;;;;;;47.85;36.70;;;;;;;8.99;100.00;102224.66;2088544;28;20057;-75
2023/01/04 01:49:45;;;;;;;33.97;22.45;;;;;;;9.00;100.00;102222.91;2084953;28;20053;-75
2023/01/04 01:51:06;;;;;;;41.17;29.08;;;;;;;9.01;100.00;102222.09;2098790;28;20040;-75
2023/01/04 01:52:34;;;;;;;34.03;21.90;;;;;;;9.02;100.00;102221.25;2096034;28;20139;-75
2023/01/04 01:54:03;;;;;;;28.50;20.35;;;;;;;9.02;100.00;102218.63;2081994;28;20347;-75
2023/01/04 01:55:25;;;;;;;34.10;19.77;;;;;;;9.04;100.00;102216.97;2091519;28;20070;-74
2023/01/04 01:56:51;;;;;;;31.60;19.85;;;;;;;9.07;100.00;102219.72;2076686;28;20038;-75
2023/01/04 01:58:22;;;;;;;31.05;19.83;;;;;;;9.07;100.00;102214.47;2084341;28;20045;-75
2023/01/04 01:59:48;;;;;;;31.17;19.40;;;;;;;9.09;100.00;102213.72;2102686;28;20389;-75
2023/01/04 02:01:11;;;;;;;39.72;28.05;;;;;;;9.08;100.00;102214.53;2087045;28;20045;-75
2023/01/04 02:02:35;;;;;;;34.70;24.55;;;;;;;9.05;100.00;102214.41;2091531;28;20052;-75
2023/01/04 02:03:57;;;;;;;30.50;20.23;;;;;;;8.99;100.00;102216.75;2079341;28;20108;-75
2023/01/04 02:05:19;;;;;;;27.77;19.80;;;;;;;8.93;100.00;102215.56;2090971;28;20404;-75
2023/01/04 02:06:47;;;;;;;28.25;17.05;;;;;;;8.86;100.00;102208.25;2100604;28;20491;-75
2023/01/04 02:08:11;;;;;;;28.67;18.17;;;;;;;8.82;100.00;102212.44;2096278;28;20044;-75
2023/01/04 02:09:34;;;;;;;30.80;18.42;;;;;;;8.83;100.00;102205.44;2096401;28;20095;-75
2023/01/04 02:10:58;;;;;;;28.00;17.38;;;;;;;8.79;100.00;102207.94;2092687;28;20098;-75
2023/01/04 02:12:19;;;;;;;28.48;17.50;;;;;;;8.77;100.00;102203.44;2085615;28;20041;-75
2023/01/04 02:15:28;;;;;;;25.58;16.85;;;;;;;8.70;100.00;102201.38;2096314;28;20056;-75
2023/01/04 02:17:05;;;;;;;26.60;17.27;;;;;;;8.69;100.00;102195.19;2093663;28;20040;-75
2023/01/04 02:18:37;;;;;;;29.67;16.83;;;;;;;8.72;100.00;102200.63;2103527;28;20507;-75
2023/01/04 02:20:25;;;;;;;26.63;17.13;;;;;;;8.74;100.00;102198.94;2080132;28;20521;-75
2023/01/04 02:22:05;;;;;;;31.02;20.52;;;;;;;8.74;100.00;102193.66;2096759;28;20064;-75
2023/01/04 02:23:54;;;;;;;39.58;27.85;;;;;;;8.75;100.00;102197.19;2100951;28;20044;-75
2023/01/04 02:25:53;;;;;;;61.22;47.30;;;;;;;8.70;100.00;102197.00;2096743;28;20063;-75
2023/01/04 02:27:36;;;;;;;50.13;37.67;;;;;;;8.70;100.00;102206.63;2087878;28;20087;-75
2023/01/04 02:29:18;;;;;;;47.47;33.42;;;;;;;8.73;100.00;102201.47;2095852;28;20110;-75
2023/01/04 02:31:10;;;;;;;46.55;33.17;;;;;;;8.76;100.00;102199.00;2095345;28;20691;-74
2023/01/04 02:32:51;;;;;;;43.78;31.45;;;;;;;8.80;100.00;102206.19;2093050;28;20086;-75
2023/01/04 02:34:19;;;;;;;48.92;31.27;;;;;;;8.82;100.00;102199.28;2094125;28;20055;-75
2023/01/04 02:35:48;;;;;;;41.58;29.10;;;;;;;8.83;100.00;102195.81;2088119;28;20071;-75
2023/01/04 02:37:25;;;;;;;35.63;22.65;;;;;;;8.86;100.00;102200.34;2085888;28;20052;-75
2023/01/04 02:39:03;;;;;;;27.42;17.48;;;;;;;8.86;100.00;102198.59;2094504;28;20147;-75
2023/01/04 02:40:38;;;;;;;32.90;21.13;;;;;;;8.88;100.00;102198.66;2091691;28;20164;-75
2023/01/04 02:42:12;;;;;;;30.60;19.08;;;;;;;8.88;100.00;102196.03;2095760;28;20051;-75
2023/01/04 02:45:23;;;;;;;31.67;18.13;;;;;;;8.94;100.00;102204.19;2094526;28;20164;-75
2023/01/04 02:46:48;;;;;;;30.98;16.63;;;;;;;8.99;100.00;102203.56;2092545;28;20040;-75
2023/01/04 02:51:33;;;;;;;28.40;17.33;;;;;;;9.12;100.00;102195.38;2095665;28;20060;-75
2023/01/04 02:52:56;;;;;;;31.40;19.95;;;;;;;9.15;100.00;102197.25;2083985;28;20114;-75
2023/01/04 02:54:26;;;;;;;29.50;18.45;;;;;;;9.16;100.00;102199.06;2089789;28;20045;-75
2023/01/04 02:55:54;;;;;;;31.60;19.77;;;;;;;9.16;100.00;102193.81;2094131;28;20222;-75
2023/01/04 02:57:27;;;;;;;29.38;18.90;;;;;;;9.15;100.00;102199.91;2090375;28;20105;-75
2023/01/04 02:59:02;;;;;;;29.90;18.70;;;;;;;9.14;100.00;102201.63;2094504;28;20037;-75
2023/01/04 03:06:14;;;;;;;26.40;17.35;;;;;;;9.12;100.00;102198.03;2103243;28;20867;-75
2023/01/04 03:06:30;;;;;;;28.17;17.15;;;;;;;9.08;100.00;102195.19;2103182;28;20066;-76
2023/01/04 03:07:58;;;;;;;29.08;18.35;;;;;;;9.08;100.00;102190.81;2094090;28;20392;-75
2023/01/04 03:09:26;;;;;;;31.40;21.98;;;;;;;9.09;100.00;102192.63;2087544;28;20132;-76
2023/01/04 03:10:55;;;;;;;29.98;19.63;;;;;;;9.10;100.00;102193.53;2086037;28;20044;-75
2023/01/04 03:12:34;;;;;;;30.42;19.85;;;;;;;9.11;100.00;102193.63;2087881;28;20037;-75
2023/01/04 03:13:59;;;;;;;35.65;25.60;;;;;;;9.05;100.00;102192.44;2087133;28;20064;-75
2023/01/04 03:15:25;;;;;;;36.10;28.17;;;;;;;8.97;100.00;102191.19;2092082;28;20041;-75
2023/01/04 03:16:49;;;;;;;44.53;34.05;;;;;;;8.90;100.00;102191.75;2087610;28;20049;-75
2023/01/04 03:18:17;;;;;;;50.20;40.58;;;;;;;8.86;100.00;102192.44;2091665;28;20087;-75
2023/01/04 03:19:53;;;;;;;59.33;50.28;;;;;;;8.83;100.00;102192.28;2086141;28;20070;-75
2023/01/04 03:21:18;;;;;;;60.80;45.83;;;;;;;8.80;100.00;102193.94;2079948;28;20272;-75
2023/01/04 03:36:44;;;;;;;39.08;29.45;;;;;;;8.42;100.00;102186.00;2101330;28;20051;-75
2023/01/04 03:48:54;;;;;;;30.85;22.08;;;;;;;8.18;100.00;102188.34;2086720;28;20057;-76
2023/01/04 03:50:23;;;;;;;30.73;22.65;;;;;;;8.17;100.00;102190.91;2093869;28;20109;-76
2023/01/04 03:51:47;;;;;;;30.60;19.73;;;;;;;8.16;100.00;102186.47;2095548;28;20574;-76
2023/01/04 03:53:09;;;;;;;29.30;19.20;;;;;;;8.14;100.00;102193.41;2094269;28;20053;-76
2023/01/04 03:54:33;;;;;;;;;;;;;;;8.05;100.00;102187.69;2094893;28;20071;-76
2023/01/04 03:55:57;;;;;;;31.45;20.58;;;;;;;8.04;100.00;102186.78;2094490;28;19927;-76
2023/01/04 03:57:21;;;;;;;33.50;21.27;;;;;;;8.02;100.00;102189.31;2102096;28;20426;-75
2023/01/04 03:58:43;;;;;;;39.28;25.85;;;;;;;8.01;100.00;102195.41;2097848;28;20060;-76
2023/01/04 04:00:09;;;;;;;44.72;28.77;;;;;;;8.00;100.00;102188.38;2102028;28;20039;-75
2023/01/04 04:01:32;;;;;;;63.95;45.42;;;;;;;7.97;100.00;102188.22;2086230;28;20048;-76
2023/01/04 04:03:05;;;;;;;63.83;43.03;;;;;;;7.99;100.00;102186.56;2091107;28;20036;-76
2023/01/04 04:09:29;;;;;;;89.22;73.15;;;;;;;7.98;100.00;102194.38;2103585;28;20071;-76
2023/01/04 04:10:52;;;;;;;86.85;66.30;;;;;;;7.95;100.00;102188.94;2096177;28;20504;-77
2023/01/04 04:12:14;;;;;;;87.78;63.92;;;;;;;7.94;100.00;102188.03;2103471;28;20052;-76
2023/01/04 04:13:37;;;;;;;79.25;56.88;;;;;;;7.94;100.00;102181.91;2088382;28;20037;-75
2023/01/04 04:15:00;;;;;;;102.78;74.97;;;;;;;7.95;100.00;102188.94;2103592;28;20469;-75
2023/01/04 04:16:21;;;;;;;85.63;62.25;;;;;;;7.94;100.00;102188.03;2096733;28;20052;-76
2023/01/04 04:17:44;;;;;;;84.75;58.00;;;;;;;7.95;100.00;102192.47;2094295;28;20052;-76
2023/01/04 04:19:05;;;;;;;84.20;58.03;;;;;;;7.97;100.00;102193.47;2085420;28;20060;-75
2023/01/04 04:20:28;;;;;;;68.32;47.60;;;;;;;8.00;100.00;102198.88;2086860;28;20139;-75
2023/01/04 04:21:51;;;;;;;63.92;42.85;;;;;;;8.05;100.00;102192.94;2094679;28;20044;-75
2023/01/04 04:23:13;;;;;;;57.78;38.83;;;;;;;8.05;100.00;102195.56;2095867;28;20044;-75
2023/01/04 04:24:35;;;;;;;67.60;46.80;;;;;;;8.09;100.00;102194.88;2094958;28;20139;-75
2023/01/04 04:25:56;;;;;;;54.47;36.05;;;;;;;8.10;100.00;102194.06;2094872;28;20078;-75
2023/01/04 04:27:19;;;;;;;49.05;30.65;;;;;;;8.10;100.00;102194.06;2093576;28;20076;-75
2023/01/04 04:28:42;;;;;;;51.08;33.58;;;;;;;8.09;100.00;102189.63;2097550;28;20044;-76
2023/01/04 04:30:06;;;;;;;48.08;30.10;;;;;;;8.09;100.00;102201.03;2089057;28;20048;-75
2023/01/04 04:31:27;;;;;;;64.07;44.67;;;;;;;8.08;100.00;102196.59;2102717;28;20052;-76
2023/01/04 04:32:49;;;;;;;53.17;32.42;;;;;;;8.06;100.00;102200.00;2079977;28;20063;-76
2023/01/04 04:34:12;;;;;;;51.60;33.33;;;;;;;8.01;100.00;102205.03;2097145;28;20044;-76
2023/01/04 04:35:33;;;;;;;48.22;28.95;;;;;;;7.98;100.00;102205.78;2096664;28;20068;-77
2023/01/04 04:36:57;;;;;;;49.95;30.73;;;;;;;8.00;100.00;102205.88;2092995;28;20028;-76
2023/01/04 04:38:19;;;;;;;42.03;26.63;;;;;;;7.99;100.00;102207.59;2088254;28;20056;-76
2023/01/04 04:39:42;;;;;;;47.00;28.40;;;;;;;7.96;100.00;102202.19;2083160;28;20048;-75
2023/01/04 04:42:47;;;;;;;47.85;27.95;;;;;;;7.91;100.00;102208.03;2102997;28;20464;-76
2023/01/04 04:44:11;;;;;;;45.92;29.40;;;;;;;7.88;100.00;102208.78;2091975;28;20048;-76
2023/01/04 04:45:33;;;;;;;48.15;29.75;;;;;;;7.89;100.00;102214.94;2097427;28;20037;-76
2023/01/04 04:46:55;;;;;;;55.17;31.10;;;;;;;7.92;100.00;102209.84;2094960;28;20101;-76
2023/01/04 04:48:18;;;;;;;63.45;36.45;;;;;;;7.97;100.00;102211.88;2099636;28;20062;-76
2023/01/04 04:49:40;;;;;;;56.50;32.63;;;;;;;8.01;100.00;102208.56;2095423;28;20130;-76
2023/01/04 04:51:01;;;;;;;63.10;37.67;;;;;;;8.05;100.00;102212.25;2085870;28;20572;-76
2023/01/04 04:52:25;;;;;;;77.30;43.53;;;;;;;8.07;100.00;102213.25;2092853;28;20071;-76
2023/01/04 04:53:47;;;;;;;48.10;27.63;;;;;;;8.09;100.00;102210.66;2085395;28;20041;-76
2023/01/04 04:55:10;;;;;;;57.45;35.45;;;;;;;8.07;100.00;102209.72;2092375;28;20087;-76
2023/01/04 04:56:33;;;;;;;52.42;30.25;;;;;;;8.06;100.00;102215.78;2087740;28;20033;-76
2023/01/04 04:57:56;;;;;;;78.68;47.47;;;;;;;8.00;100.00;102217.28;2091759;28;20041;-76
2023/01/04 04:59:18;;;;;;;75.95;48.08;;;;;;;7.97;100.00;102216.22;2088408;28;20405;-76
2023/01/04 05:00:40;;;;;;;105.68;72.50;;;;;;;7.93;100.00;102217.81;2092261;28;20044;-77
2023/01/04 05:02:03;;;;;;;90.03;61.45;;;;;;;7.87;100.00;102217.50;2085958;28;20444;-76
2023/01/04 05:03:24;;;;;;;79.22;55.83;;;;;;;7.86;100.00;102214.81;2100650;28;20159;-76
2023/01/04 05:04:46;;;;;;;81.72;57.35;;;;;;;7.81;100.00;102217.19;2087348;28;20048;-76
2023/01/04 05:06:08;;;;;;;89.97;64.13;;;;;;;7.79;100.00;102220.56;2090614;28;20064;-77
2023/01/04 05:07:32;;;;;;;81.70;58.45;;;;;;;7.79;100.00;102221.47;2094492;28;20445;-76
2023/01/04 05:08:55;;;;;;;89.70;64.28;;;;;;;7.76;100.00;102221.31;2086363;28;20106;-76
2023/01/04 05:10:16;;;;;;;86.70;64.07;;;;;;;7.74;100.00;102220.34;2083457;28;20509;-76
2023/01/04 05:13:18;;;;;;;89.82;60.55;;;;;;;7.69;100.00;102216.56;2093214;28;20183;-77
2023/01/04 05:14:39;;;;;;;106.70;68.22;;;;;;;7.73;100.00;102213.28;2085255;28;20045;-76
2023/01/04 05:16:03;;;;;;;132.13;90.00;;;;;;;7.79;100.00;102210.97;2102834;28;20131;-77
2023/01/04 05:17:24;;;;;;;79.97;53.47;;;;;;;7.82;100.00;102221.63;2097330;28;20892;-76
2023/01/04 05:18:47;;;;;;;74.20;46.33;;;;;;;7.87;100.00;102214.88;2102072;28;20052;-76
2023/01/04 05:20:09;;;;;;;72.60;45.50;;;;;;;7.95;100.00;102218.78;2080628;28;20053;-75
2023/01/04 05:21:31;;;;;;;;;;;;;;;7.93;100.00;102219.53;2091868;28;20048;-75
2023/01/04 05:22:55;;;;;;;66.50;47.53;;;;;;;7.93;100.00;102215.19;2084252;28;19927;-75
2023/01/04 05:24:18;;;;;;;52.08;36.92;;;;;;;7.94;100.00;102221.34;2093598;28;20055;-77
2023/01/04 05:25:41;;;;;;;55.25;37.70;;;;;;;7.90;100.00;102216.75;2084266;28;20406;-76
2023/01/04 05:27:03;;;;;;;58.83;38.67;;;;;;;7.88;100.00;102221.91;2094485;28;20044;-76
2023/01/04 05:28:25;;;;;;;59.20;38.17;;;;;;;7.87;100.00;102217.50;2084632;28;20517;-77
2023/01/04 05:31:27;;;;;;;58.92;39.75;;;;;;;7.90;100.00;102212.38;2087725;28;20045;-77
2023/01/04 05:32:48;;;;;;;48.53;28.38;;;;;;;7.91;100.00;102222.09;2090658;28;20533;-77
2023/01/04 05:34:10;;;;;;;45.00;27.80;;;;;;;7.88;100.00;102218.38;2084913;28;20104;-77
2023/01/04 05:35:32;;;;;;;46.50;26.85;;;;;;;7.85;100.00;102219.16;2093718;28;20041;-76
2023/01/04 05:36:54;;;;;;;39.55;24.50;;;;;;;7.82;100.00;102213.72;2093868;28;20504;-77
2023/01/04 05:38:18;;;;;;;43.05;26.60;;;;;;;7.80;100.00;102219.75;2092698;28;20113;-76
2023/01/04 05:39:40;;;;;;;41.90;28.63;;;;;;;7.77;100.00;102223.13;2094560;28;20135;-77
2023/01/04 05:41:02;;;;;;;42.28;24.95;;;;;;;7.78;100.00;102224.03;2082822;28;20611;-77
2023/01/04 05:42:26;;;;;;;43.33;27.02;;;;;;;7.76;100.00;102223.94;2084113;28;20442;-76
2023/01/04 05:43:49;;;;;;;42.75;26.20;;;;;;;7.76;100.00;102223.94;2081529;28;20044;-76
2023/01/04 05:45:12;;;;;;;51.80;31.42;;;;;;;7.76;100.00;102218.69;2096561;28;20064;-76
2023/01/04 05:46:33;;;;;;;65.57;39.25;;;;;;;7.82;100.00;102228.59;2093786;28;20972;-76
2023/01/04 05:47:55;;;;;;;51.88;28.55;;;;;;;7.89;100.00;102222.81;2093893;28;20055;-76
2023/01/04 05:49:17;;;;;;;41.67;24.88;;;;;;;7.91;100.00;102221.19;2085602;28;20441;-76
2023/01/04 05:50:39;;;;;;;40.63;24.40;;;;;;;7.88;100.00;102223.66;2085920;28;20041;-76
2023/01/04 05:52:05;;;;;;;93.75;55.15;;;;;;;7.83;100.00;102226.06;2091999;28;20049;-76
2023/01/04 05:53:29;;;;;;;88.18;55.65;;;;;;;7.84;100.00;102224.31;2090671;28;20386;-76
2023/01/04 05:54:50;;;;;;;70.28;47.05;;;;;;;7.83;100.00;102226.06;2091828;28;20070;-76
2023/01/04 05:56:12;;;;;;;58.85;37.13;;;;;;;7.83;100.00;102228.69;2100515;28;20567;-77
2023/01/04 05:57:35;;;;;;;56.03;35.67;;;;;;;7.84;100.00;102227.88;2083893;28;20405;-77
2023/01/04 05:58:56;;;;;;;95.03;56.42;;;;;;;7.85;100.00;102232.31;2091409;28;20044;-77
2023/01/04 06:00:19;;;;;;;100.72;64.43;;;;;;;7.92;100.00;102226.53;2085106;28;20052;-76
2023/01/04 06:01:40;;;;;;;129.82;79.60;;;;;;;7.97;100.00;102224.13;2099923;28;20048;-76
2023/01/04 06:03:03;;;;;;;124.93;78.40;;;;;;;8.06;100.00;102231.56;2096734;28;20152;-76
2023/01/04 06:04:24;;;;;;;136.75;81.93;;;;;;;8.11;100.00;102237.94;2096131;28;20052;-77
2023/01/04 06:05:50;;;;;;;74.55;46.40;;;;;;;8.16;100.00;102234.72;2084125;28;20048;-77
2023/01/04 06:07:12;;;;;;;80.85;56.22;;;;;;;8.15;100.00;102230.28;2092562;28;20405;-76
2023/01/04 06:08:36;;;;;;;63.92;43.58;;;;;;;8.11;100.00;102228.34;2093363;28;20095;-77
2023/01/04 06:09:57;;;;;;;70.32;49.20;;;;;;;8.07;100.00;102236.91;2091561;28;20052;-77
2023/01/04 06:11:19;;;;;;;67.18;50.63;;;;;;;8.06;100.00;102224.59;2085167;28;20048;-76
2023/01/04 06:12:42;;;;;;;72.45;53.20;;;;;;;8.04;100.00;102235.84;2086114;28;20106;-76
2023/01/04 06:14:03;;;;;;;71.53;59.88;;;;;;;8.03;100.00;102229.69;2090802;28;20044;-77
2023/01/04 06:15:26;;;;;;;90.57;65.72;;;;;;;8.03;100.00;102232.31;2087292;28;20055;-76
2023/01/04 06:16:47;;;;;;;73.57;56.20;;;;;;;8.07;100.00;102231.66;2091574;28;20048;-76
2023/01/04 06:18:11;;;;;;;88.07;60.03;;;;;;;8.07;100.00;102234.28;2083739;28;20139;-76
2023/01/04 06:19:32;;;;;;;77.95;55.33;;;;;;;8.13;100.00;102245.09;2086028;28;20106;-76
2023/01/04 06:20:54;;;;;;;76.18;51.25;;;;;;;8.21;100.00;102242.81;2091434;28;20063;-77
2023/01/04 06:22:17;;;;;;;62.92;43.45;;;;;;;8.27;100.00;102238.75;2093783;28;20044;-76
2023/01/04 06:23:40;;;;;;;58.28;40.17;;;;;;;8.40;100.00;102242.94;2085567;28;20106;-77
2023/01/04 06:25:02;;;;;;;37.10;27.40;;;;;;;8.57;100.00;102239.38;2085095;28;20041;-77
2023/01/04 06:26:23;;;;;;;30.35;22.70;;;;;;;8.75;100.00;102245.50;2090846;28;20051;-77
2023/01/04 06:27:46;;;;;;;32.35;24.13;;;;;;;8.93;100.00;102248.06;2084458;28;20068;-76
2023/01/04 06:29:07;;;;;;;32.30;25.70;;;;;;;9.10;100.00;102247.13;2085187;28;20044;-77
2023/01/04 06:30:30;;;;;;;30.23;23.30;;;;;;;9.30;100.00;102255.94;2097552;28;20067;-76
2023/01/04 06:31:53;;;;;;;27.63;20.92;;;;;;;9.49;100.00;102260.28;2085700;28;20065;-76
2023/01/04 06:33:15;;;;;;;33.55;25.30;;;;;;;9.68;100.00;102260.22;2098311;28;20396;-76
2023/01/04 06:34:38;;;;;;;23.95;19.50;;;;;;;9.87;100.00;102269.84;2095813;28;20584;-77
2023/01/04 06:36:00;;;;;;;21.40;18.02;;;;;;;10.03;100.00;102267.03;2085049;28;20041;-76
2023/01/04 06:37:22;;;;;;;24.98;18.05;;;;;;;10.19;100.00;102265.94;2082144;28;20118;-77
2023/01/04 06:38:46;;;;;;;21.65;17.80;;;;;;;10.33;100.00;102265.66;2098574;28;20040;-76
2023/01/04 06:40:10;;;;;;;23.40;18.98;;;;;;;10.48;100.00;102280.34;2086263;28;20060;-77
2023/01/04 06:41:32;;;;;;;23.25;17.55;;;;;;;10.62;100.00;102274.78;2087026;28;20140;-77
2023/01/04 06:42:55;;;;;;;19.95;16.42;;;;;;;10.75;100.00;102273.50;2088210;28;20432;-77
2023/01/04 06:44:17;;;;;;;21.10;16.95;;;;;;;10.87;100.00;102278.34;2084965;28;20049;-77
2023/01/04 06:45:40;;;;;;;20.13;15.90;;;;;;;10.99;100.00;102284.13;2085226;28;20106;-77
2023/01/04 06:47:02;;;;;;;20.08;17.05;;;;;;;11.12;100.00;102286.38;2084694;28;20037;-76
2023/01/04 06:48:25;;;;;;;18.00;15.50;;;;;;;11.23;100.00;102282.38;2089505;28;20059;-76
2023/01/04 06:49:46;;;;;;;17.45;14.60;;;;;;;11.36;100.00;102281.09;2086962;28;20049;-76
2023/01/04 06:51:09;;;;;;;19.10;16.35;;;;;;;11.49;100.00;102281.59;2087469;28;20053;-76
2023/01/04 06:52:31;;;;;;;19.05;15.73;;;;;;;11.64;100.00;102277.72;2091027;28;20044;-76
2023/01/04 06:53:55;;;;;;;21.75;16.55;;;;;;;11.79;100.00;102279.19;2093071;28;20090;-76
2023/01/04 06:55:16;;;;;;;19.98;16.55;;;;;;;11.92;100.00;102283.16;2093704;28;20051;-76
2023/01/04 06:56:40;;;;;;;18.25;15.40;;;;;;;12.03;100.00;102281.78;2094428;28;20450;-77
2023/01/04 06:58:03;;;;;;;15.23;12.93;;;;;;;12.16;100.00;102276.03;2083768;28;20044;-76
2023/01/04 06:59:25;;;;;;;15.23;11.18;;;;;;;12.30;100.00;102284.44;2089398;28;20091;-76
2023/01/04 07:00:48;;;;;;;15.07;12.40;;;;;;;12.42;100.00;102279.56;2092998;28;20456;-76
2023/01/04 07:02:14;;;;;;;13.70;11.98;;;;;;;12.55;100.00;102275.53;2092097;28;20183;-76
2023/01/04 07:03:36;;;;;;;13.02;10.15;;;;;;;12.69;100.00;102276.88;2093297;28;20488;-77
2023/01/04 07:04:59;;;;;;;14.30;10.35;;;;;;;12.86;100.00;102282.72;2095630;28;20048;-76
2023/01/04 07:06:21;;;;;;;14.93;11.00;;;;;;;12.99;100.00;102275.19;2094455;28;20040;-76
2023/01/04 07:07:42;;;;;;;13.35;9.88;;;;;;;13.14;100.00;102277.41;2079741;28;20735;-76
2023/01/04 07:09:06;;;;;;;11.73;9.15;;;;;;;13.30;100.00;102277.00;2099391;28;20055;-77